(°C)
17°
18°
19°
21°
22°
23°
25°
(°C)
18°
19°
21°
22°
24°
25°
26°
SSV
SSV
SSV
SSV
S
S
S
(km/h)
1-5
2-6
3-7
4-9
6-12
9-17
11-21
(mm)
0
0
0
0
0
0
0
(%)
2
11
21
31
32
33
34

Elevația soarelui

/ -7.5°
sun-icon
UV 7
05:45
20:11
Lună plină (185°)
21:12
05:58

METAR pentru Wilmington Manor (KILG)

Ora Condiții Temperatură/
Punctul de rouă
Vânt Vizibilitate Vremea Nori Presiune Schimbă Brut
LIFR 16.7°C / 15.6°C variable 0kt 6400m Mist Vertical Visibility of 0ft.
Broken Clouds 900ft
1007 - KILG 160851Z AUTO 00000KT 4SM BR BKN003 BKN009 17/16 A2977 RMK AO2 SLP079 T01670156 56006
IFR 16.1°C / 15°C variable 0kt 4800m Mist Vertical Visibility of 0ft.
Broken Clouds 900ft
- KILG 160839Z AUTO 00000KT 3SM BR SCT004 BKN009 16/15 A2977 RMK AO2 T01610150
IFR 15.6°C / 15°C variable 0kt 4000m Mist Vertical Visibility of 0ft.
Scattered Clouds 900ft
- KILG 160836Z AUTO 00000KT 2 1/2SM BR FEW004 SCT009 16/15 A2977 RMK AO2 VIS 2V4 T01560150
VFR 16.1°C / 15°C 180º 3kt >10km - Few Clouds 12000ft 1008 - KILG 160751Z AUTO 18003KT 8SM FEW120 16/15 A2978 RMK AO2 SLP082 T01610150
VFR 15.6°C / 14.4°C 310º 3kt 9700m Mist Vertical Visibility of 0ft. 1008 - KILG 160651Z AUTO 31003KT 6SM BR FEW120 16/14 A2978 RMK AO2 SLP085 T01560144
VFR 17.2°C / 15.6°C variable 0kt >10km - Clear 1009 - KILG 160551Z AUTO 00000KT 10SM CLR 17/16 A2980 RMK AO2 SLP092 T01720156 10194 20172 58017
VFR 17.8°C / 16.1°C variable 0kt >10km - Scattered Clouds 2100ft 1010 - KILG 160451Z AUTO 00000KT 10SM SCT021 18/16 A2983 RMK AO2 SLP102 T01780161 402560161
VFR 17.2°C / 15.6°C 170º 3kt >10km - Few Clouds 3000ft 1010 - KILG 160351Z AUTO 17003KT 10SM FEW030 17/16 A2984 RMK AO2 SLP104 T01720156
VFR 17.8°C / 16.1°C variable 0kt >10km - Few Clouds 3400ft 1011 - KILG 160251Z 00000KT 10SM FEW034 18/16 A2986 RMK AO2 SLP110 T01780161 53012
VFR 18.3°C / 16.1°C 180º 5kt >10km - Clear 1010 - KILG 160151Z 18005KT 10SM CLR 18/16 A2985 RMK AO2 SLP109 T01830161
VFR 18.9°C / 16.7°C 160º 10kt >10km - Clear 1009 - KILG 160051Z 16010KT 10SM CLR 19/17 A2982 RMK AO2 SLP096 T01890167
VFR 19.4°C / 16.7°C 170º 11kt >10km - Clear 1009 - KILG 152351Z 17011KT 10SM CLR 19/17 A2982 RMK AO2 SLP098 T01940167 10256 20194 55000
VFR 23.9°C / 17.8°C 220º 8kt >10km - Clear 1009 - KILG 152251Z 22008KT 10SM CLR 24/18 A2982 RMK AO2 SLP097 T02390178
VFR 25.6°C / 18.9°C 210º 7kt >10km - Scattered Clouds 3000ft 1009 - KILG 152151Z 21007KT 10SM SCT030 26/19 A2982 RMK AO2 SLP097 T02560189
VFR 25°C / 18.3°C 150º 9kt >10km - Few Clouds 2900ft 1009 - KILG 152051Z 15009KT 10SM FEW029 25/18 A2982 RMK AO2 SLP098 T02500183 56028
MVFR 25°C / 18.9°C 170º 8kt >10km - Broken Clouds 3000ft 1010 - KILG 151951Z 17008KT 10SM BKN030 25/19 A2984 RMK AO2 SLP106 T02500189
MVFR 24.4°C / 18.3°C 210º 6kt >10km - Overcast 3000ft - KILG 151907Z 21006KT 10SM OVC030 24/18 A2987 RMK AO2 T02440183
MVFR 24.4°C / 17.8°C 220º 5kt >10km - Broken Clouds 2600ft
Overcast 3100ft
1011 - KILG 151851Z 22005KT 10SM BKN026 OVC031 24/18 A2988 RMK AO2 SLP117 T02440178
MVFR 23.3°C / 17.2°C 220º 7kt >10km - Overcast 2200ft 1012 - KILG 151751Z 22007KT 10SM OVC022 23/17 A2990 RMK AO2 SLP126 T02330172 10233 20178 58010
MVFR 22.2°C / 17.2°C 190º 4kt >10km - Overcast 2100ft 1013 - KILG 151651Z 19004KT 10SM OVC021 22/17 A2992 RMK AO2 SLP131 T02220172
MVFR 21.7°C / 17.2°C 230º 4kt >10km - Overcast 1800ft 1013 - KILG 151551Z 23004KT 10SM OVC018 22/17 A2993 RMK AO2 SLP134 T02170172
MVFR 21.1°C / 17.8°C 250º 5kt >10km - Overcast 1800ft - KILG 151458Z 25005KT 10SM OVC018 21/18 A2993 RMK AO2 T02110178
MVFR 21.1°C / 17.8°C 260º 5kt >10km - Broken Clouds 1300ft
Overcast 2000ft
1013 - KILG 151451Z 26005KT 10SM BKN013 OVC020 21/18 A2993 RMK AO2 SLP136 T02110178 58000
MVFR 21.1°C / 17.8°C 250º 6kt >10km - Broken Clouds 1300ft
Overcast 1900ft
- KILG 151416Z 25006KT 10SM BKN013 OVC019 21/18 A2994 RMK AO2 T02110178

LIFR

16.7°C / 15.6°C

[Mai mult]
Vânt variable 0kt
Vizibilitate 6400m
Vremea Mist
Nori Vertical Visibility of 0ft.
Broken Clouds 900ft
Presiune 1007
Schimbă -
Brut KILG 160851Z AUTO 00000KT 4SM BR BKN003 BKN009 17/16 A2977 RMK AO2 SLP079 T01670156 56006

IFR

16.1°C / 15°C

[Mai mult]
Vânt variable 0kt
Vizibilitate 4800m
Vremea Mist
Nori Vertical Visibility of 0ft.
Broken Clouds 900ft
Presiune
Schimbă -
Brut KILG 160839Z AUTO 00000KT 3SM BR SCT004 BKN009 16/15 A2977 RMK AO2 T01610150

IFR

15.6°C / 15°C

[Mai mult]
Vânt variable 0kt
Vizibilitate 4000m
Vremea Mist
Nori Vertical Visibility of 0ft.
Scattered Clouds 900ft
Presiune
Schimbă -
Brut KILG 160836Z AUTO 00000KT 2 1/2SM BR FEW004 SCT009 16/15 A2977 RMK AO2 VIS 2V4 T01560150

VFR

16.1°C / 15°C

[Mai mult]
Vânt 180º 3kt
Vizibilitate >10km
Vremea -
Nori Few Clouds 12000ft
Presiune 1008
Schimbă -
Brut KILG 160751Z AUTO 18003KT 8SM FEW120 16/15 A2978 RMK AO2 SLP082 T01610150

VFR

15.6°C / 14.4°C

[Mai mult]
Vânt 310º 3kt
Vizibilitate 9700m
Vremea Mist
Nori Vertical Visibility of 0ft.
Presiune 1008
Schimbă -
Brut KILG 160651Z AUTO 31003KT 6SM BR FEW120 16/14 A2978 RMK AO2 SLP085 T01560144

VFR

17.2°C / 15.6°C

[Mai mult]
Vânt variable 0kt
Vizibilitate >10km
Vremea -
Nori Clear
Presiune 1009
Schimbă -
Brut KILG 160551Z AUTO 00000KT 10SM CLR 17/16 A2980 RMK AO2 SLP092 T01720156 10194 20172 58017

VFR

17.8°C / 16.1°C

[Mai mult]
Vânt variable 0kt
Vizibilitate >10km
Vremea -
Nori Scattered Clouds 2100ft
Presiune 1010
Schimbă -
Brut KILG 160451Z AUTO 00000KT 10SM SCT021 18/16 A2983 RMK AO2 SLP102 T01780161 402560161

VFR

17.2°C / 15.6°C

[Mai mult]
Vânt 170º 3kt
Vizibilitate >10km
Vremea -
Nori Few Clouds 3000ft
Presiune 1010
Schimbă -
Brut KILG 160351Z AUTO 17003KT 10SM FEW030 17/16 A2984 RMK AO2 SLP104 T01720156

VFR

17.8°C / 16.1°C

[Mai mult]
Vânt variable 0kt
Vizibilitate >10km
Vremea -
Nori Few Clouds 3400ft
Presiune 1011
Schimbă -
Brut KILG 160251Z 00000KT 10SM FEW034 18/16 A2986 RMK AO2 SLP110 T01780161 53012

VFR

18.3°C / 16.1°C

[Mai mult]
Vânt 180º 5kt
Vizibilitate >10km
Vremea -
Nori Clear
Presiune 1010
Schimbă -
Brut KILG 160151Z 18005KT 10SM CLR 18/16 A2985 RMK AO2 SLP109 T01830161

VFR

18.9°C / 16.7°C

[Mai mult]
Vânt 160º 10kt
Vizibilitate >10km
Vremea -
Nori Clear
Presiune 1009
Schimbă -
Brut KILG 160051Z 16010KT 10SM CLR 19/17 A2982 RMK AO2 SLP096 T01890167

VFR

19.4°C / 16.7°C

[Mai mult]
Vânt 170º 11kt
Vizibilitate >10km
Vremea -
Nori Clear
Presiune 1009
Schimbă -
Brut KILG 152351Z 17011KT 10SM CLR 19/17 A2982 RMK AO2 SLP098 T01940167 10256 20194 55000

VFR

23.9°C / 17.8°C

[Mai mult]
Vânt 220º 8kt
Vizibilitate >10km
Vremea -
Nori Clear
Presiune 1009
Schimbă -
Brut KILG 152251Z 22008KT 10SM CLR 24/18 A2982 RMK AO2 SLP097 T02390178

VFR

25.6°C / 18.9°C

[Mai mult]
Vânt 210º 7kt
Vizibilitate >10km
Vremea -
Nori Scattered Clouds 3000ft
Presiune 1009
Schimbă -
Brut KILG 152151Z 21007KT 10SM SCT030 26/19 A2982 RMK AO2 SLP097 T02560189

VFR

25°C / 18.3°C

[Mai mult]
Vânt 150º 9kt
Vizibilitate >10km
Vremea -
Nori Few Clouds 2900ft
Presiune 1009
Schimbă -
Brut KILG 152051Z 15009KT 10SM FEW029 25/18 A2982 RMK AO2 SLP098 T02500183 56028

MVFR

25°C / 18.9°C

[Mai mult]
Vânt 170º 8kt
Vizibilitate >10km
Vremea -
Nori Broken Clouds 3000ft
Presiune 1010
Schimbă -
Brut KILG 151951Z 17008KT 10SM BKN030 25/19 A2984 RMK AO2 SLP106 T02500189

MVFR

24.4°C / 18.3°C

[Mai mult]
Vânt 210º 6kt
Vizibilitate >10km
Vremea -
Nori Overcast 3000ft
Presiune
Schimbă -
Brut KILG 151907Z 21006KT 10SM OVC030 24/18 A2987 RMK AO2 T02440183

MVFR

24.4°C / 17.8°C

[Mai mult]
Vânt 220º 5kt
Vizibilitate >10km
Vremea -
Nori Broken Clouds 2600ft
Overcast 3100ft
Presiune 1011
Schimbă -
Brut KILG 151851Z 22005KT 10SM BKN026 OVC031 24/18 A2988 RMK AO2 SLP117 T02440178

MVFR

23.3°C / 17.2°C

[Mai mult]
Vânt 220º 7kt
Vizibilitate >10km
Vremea -
Nori Overcast 2200ft
Presiune 1012
Schimbă -
Brut KILG 151751Z 22007KT 10SM OVC022 23/17 A2990 RMK AO2 SLP126 T02330172 10233 20178 58010

MVFR

22.2°C / 17.2°C

[Mai mult]
Vânt 190º 4kt
Vizibilitate >10km
Vremea -
Nori Overcast 2100ft
Presiune 1013
Schimbă -
Brut KILG 151651Z 19004KT 10SM OVC021 22/17 A2992 RMK AO2 SLP131 T02220172

MVFR

21.7°C / 17.2°C

[Mai mult]
Vânt 230º 4kt
Vizibilitate >10km
Vremea -
Nori Overcast 1800ft
Presiune 1013
Schimbă -
Brut KILG 151551Z 23004KT 10SM OVC018 22/17 A2993 RMK AO2 SLP134 T02170172

MVFR

21.1°C / 17.8°C

[Mai mult]
Vânt 250º 5kt
Vizibilitate >10km
Vremea -
Nori Overcast 1800ft
Presiune
Schimbă -
Brut KILG 151458Z 25005KT 10SM OVC018 21/18 A2993 RMK AO2 T02110178

MVFR

21.1°C / 17.8°C

[Mai mult]
Vânt 260º 5kt
Vizibilitate >10km
Vremea -
Nori Broken Clouds 1300ft
Overcast 2000ft
Presiune 1013
Schimbă -
Brut KILG 151451Z 26005KT 10SM BKN013 OVC020 21/18 A2993 RMK AO2 SLP136 T02110178 58000

MVFR

21.1°C / 17.8°C

[Mai mult]
Vânt 250º 6kt
Vizibilitate >10km
Vremea -
Nori Broken Clouds 1300ft
Overcast 1900ft
Presiune
Schimbă -
Brut KILG 151416Z 25006KT 10SM BKN013 OVC019 21/18 A2994 RMK AO2 T02110178

TAF pentru Wilmington Manor (KILG)

From till


From till Wind variable 3kt. Visibility 3200m. Mist . Broken Clouds 600ft.
Temporarly from till Broken Clouds 300ft.
From till Wind variable 3kt. Visibility 6400m. Mist . Broken Clouds 1000ft.
From till Wind 200º 10kt. Visibility 10km or more. Showers Rain in the Vicinity Thunderstorm . Broken Clouds 4000ft.
Temporarly from till Visibility 3200m. Thunderstorm Rain Mist . Overcast 1500ft.
From till Wind 260º 10kt. Visibility 10km or more. Broken Clouds 8000ft.

Brut: KILG 160857Z 1609/1706 VRB03KT 2SM BR BKN006 TEMPO 1609/1612 BKN003 FM161200 VRB03KT 4SM BR BKN010 FM161600 20010KT P6SM SHRA VCTS BKN040CB TEMPO 1619/1623 2SM TSRA BR OVC015CB FM162300 26010KT P6SM BKN080

Radar și nowcast de precipitații pentru Wilmington Manor

Burniță
Ușoară
Moderat
Greu
Foarte greu
Grindină

Markerul de locație este plasat în Wilmington Manor. Această animație arată radarul de precipitații pentru ultima oră, precum și o 1h prognoză. Ploaia sau ninsoarea slabă ar putea fi invizibilă pentru radar. Intensitatea precipitațiilor este codificată prin culori, de la albastru deschis la portocaliu.

Imagini satelitare actuale pentru: Wilmington Manor, S.U.A.

Markerul cu locaţia este poziţionat pe Wilmington Manor. [Mai mult]

Imaginea satelitară în timp real combină lumina vizibilă din timpul zilei cu radiația cu infraroșu din timpul nopții. Pe timp de noapte, imaginea nu este întunecată, deoarece radiația cu infraroșu poate detecta diferențele de temperatură. Din păcate, norii joși și ceața sunt greu de recunoscut față de temperatura de la sol, din această cauză putând fi invizibili pe timp de noapte. Imaginile satelitare Meteosat pentru Europa sunt actualizate în timp real din 5 în 5 minute. Imaginile GOES-16/GOES-17 (America de Nord și de Sud) și Himawari (Asia) sunt actualizate din 10 în 10 minute.

Mergi sus